createdAt,value
2018-03-29T00:09:39.248Z,6.30
2018-03-29T00:12:06.888Z,5.70
2018-03-29T00:14:35.786Z,5.90
2018-03-29T00:17:03.306Z,5.90
2018-03-29T00:19:30.857Z,5.90
2018-03-29T00:21:58.411Z,5.90
2018-03-29T00:24:26.006Z,6.00
2018-03-29T00:26:54.293Z,6.20
2018-03-29T00:29:22.729Z,6.10
2018-03-29T00:31:50.314Z,6.00
2018-03-29T00:34:17.837Z,6.10
2018-03-29T00:36:45.390Z,6.00
2018-03-29T00:39:13.177Z,6.10
2018-03-29T00:41:40.685Z,6.00
2018-03-29T00:44:08.205Z,5.90
2018-03-29T00:46:36.206Z,5.90
2018-03-29T00:49:04.558Z,5.90
2018-03-29T00:51:32.070Z,5.80
2018-03-29T00:53:59.580Z,5.60
2018-03-29T00:56:27.086Z,5.50
2018-03-29T00:58:54.638Z,5.50
2018-03-29T01:01:22.171Z,5.30
2018-03-29T01:03:50.446Z,5.30
2018-03-29T01:06:18.959Z,5.40
2018-03-29T01:08:46.487Z,5.40
2018-03-29T01:11:14.788Z,5.20
2018-03-29T01:13:42.303Z,5.20
2018-03-29T01:16:09.836Z,5.10
2018-03-29T01:18:37.810Z,5.10
2018-03-29T01:21:05.398Z,5.30
2018-03-29T01:23:32.930Z,5.30
2018-03-29T01:26:00.486Z,5.20
2018-03-29T01:28:28.324Z,5.10
2018-03-29T01:30:55.825Z,4.90
2018-03-29T01:33:23.399Z,5.00
2018-03-29T01:35:51.426Z,5.10
2018-03-29T01:38:19.078Z,5.10
2018-03-29T01:40:46.622Z,5.00
2018-03-29T01:43:14.137Z,5.00
2018-03-29T01:45:41.653Z,5.10
2018-03-29T01:48:09.157Z,5.00
2018-03-29T01:50:36.686Z,5.00
2018-03-29T01:53:04.187Z,5.10
2018-03-29T02:08:37.540Z,4.60
2018-03-29T02:11:05.067Z,4.60
2018-03-29T02:13:37.596Z,5.00
2018-03-29T02:16:05.101Z,5.00
2018-03-29T02:18:33.377Z,4.90
2018-03-29T02:21:00.885Z,4.90
2018-03-29T02:23:28.429Z,4.90
2018-03-29T02:25:55.936Z,4.90
2018-03-29T02:28:24.226Z,4.90
2018-03-29T02:30:52.549Z,5.00
2018-03-29T02:33:20.146Z,4.90
2018-03-29T02:35:48.478Z,5.10
2018-03-29T02:38:16.006Z,5.10
2018-03-29T02:40:44.284Z,5.10
2018-03-29T02:43:11.812Z,5.00
2018-03-29T02:45:39.328Z,5.10
2018-03-29T02:48:12.886Z,5.00
2018-03-29T02:50:41.169Z,5.10
2018-03-29T02:53:09.456Z,5.00
2018-03-29T02:55:37.841Z,5.00
2018-03-29T02:58:06.110Z,5.10
2018-03-29T03:00:34.469Z,5.20
2018-03-29T03:03:02.761Z,5.10
2018-03-29T03:05:31.040Z,5.10
2018-03-29T03:07:59.326Z,5.10
2018-03-29T03:10:26.872Z,5.10
2018-03-29T03:22:44.421Z,5.10
2018-03-29T03:25:11.936Z,4.80
2018-03-29T03:27:44.304Z,5.00
2018-03-29T03:30:11.859Z,5.00
2018-03-29T03:32:40.144Z,5.10
2018-03-29T03:35:08.542Z,5.20
2018-03-29T03:37:36.094Z,5.20
2018-03-29T03:40:03.733Z,5.30
2018-03-29T03:42:32.644Z,5.10
2018-03-29T03:45:00.163Z,5.10
2018-03-29T03:47:27.875Z,5.10
2018-03-29T03:49:55.394Z,5.10
2018-03-29T03:52:23.087Z,5.20
2018-03-29T03:54:51.052Z,5.10
2018-03-29T04:10:19.036Z,5.20
2018-03-29T04:12:47.322Z,4.70
2018-03-29T04:15:16.070Z,4.80
2018-03-29T04:17:45.403Z,5.10
2018-03-29T04:20:14.000Z,5.10
2018-03-29T04:22:41.674Z,5.30
2018-03-29T04:25:13.278Z,5.20
2018-03-29T04:27:41.557Z,5.20
2018-03-29T04:30:09.846Z,5.20
2018-03-29T04:32:37.404Z,5.20
2018-03-29T04:35:05.240Z,5.30
2018-03-29T04:37:36.551Z,5.40
2018-03-29T04:40:04.068Z,5.40
2018-03-29T04:42:33.087Z,5.30
2018-03-29T04:45:00.731Z,5.30
2018-03-29T04:47:28.361Z,5.30
2018-03-29T04:49:55.883Z,5.20
2018-03-29T04:52:23.845Z,5.20
2018-03-29T04:54:51.384Z,5.10
2018-03-29T04:57:19.623Z,5.10
2018-03-29T04:59:47.887Z,5.10
2018-03-29T05:02:16.443Z,5.10
2018-03-29T05:04:44.374Z,5.20
2018-03-29T05:07:12.660Z,5.20
2018-03-29T05:09:40.169Z,5.20
2018-03-29T05:12:07.700Z,5.10
2018-03-29T05:14:35.239Z,5.10
2018-03-29T05:17:02.761Z,5.10
2018-03-29T05:19:30.281Z,5.00
2018-03-29T05:21:57.805Z,4.90
2018-03-29T05:24:26.087Z,5.00
2018-03-29T05:26:55.720Z,5.00
2018-03-29T05:42:28.309Z,5.00
2018-03-29T05:44:55.831Z,4.70
2018-03-29T05:47:24.140Z,4.80
2018-03-29T05:49:51.671Z,5.00
2018-03-29T05:52:20.029Z,5.10
2018-03-29T05:54:48.993Z,5.30
2018-03-29T05:57:16.542Z,5.30
2018-03-29T05:59:44.074Z,5.40
2018-03-29T06:02:11.595Z,5.40
2018-03-29T06:04:39.914Z,5.60
2018-03-29T06:07:08.338Z,5.50
2018-03-29T06:09:35.852Z,5.50
2018-03-29T06:12:03.385Z,5.60
2018-03-29T06:14:37.496Z,5.60
2018-03-29T06:17:06.780Z,5.60
2018-03-29T06:19:34.278Z,5.60
2018-03-29T06:22:02.598Z,5.60
2018-03-29T06:24:34.057Z,5.70
2018-03-29T06:27:02.393Z,5.90
2018-03-29T06:29:30.229Z,5.80
2018-03-29T06:31:58.639Z,5.90
2018-03-29T06:34:26.156Z,5.90
2018-03-29T06:36:54.486Z,6.10
2018-03-29T06:39:21.993Z,6.10
2018-03-29T06:41:53.861Z,6.30
2018-03-29T06:44:22.180Z,6.40
2018-03-29T06:46:49.733Z,6.40
2018-03-29T06:49:17.546Z,6.60
2018-03-29T06:51:49.405Z,6.50
2018-03-29T06:54:17.840Z,6.50
2018-03-29T06:56:46.154Z,6.50
2018-03-29T06:59:14.223Z,6.60
2018-03-29T07:01:41.783Z,6.60
2018-03-29T07:04:09.737Z,6.60
2018-03-29T07:06:37.632Z,6.50
2018-03-29T07:09:06.740Z,6.40
2018-03-29T07:11:34.271Z,6.50
2018-03-29T07:14:02.390Z,6.60
2018-03-29T07:16:30.947Z,6.50
2018-03-29T07:18:59.337Z,6.50
2018-03-29T07:21:26.898Z,6.60
2018-03-29T07:23:54.482Z,6.70
2018-03-29T07:26:22.595Z,6.80
2018-03-29T07:28:50.140Z,6.90
2018-03-29T07:31:19.023Z,7.10
2018-03-29T07:33:46.840Z,7.30
2018-03-29T07:36:14.360Z,7.40
2018-03-29T07:38:42.616Z,7.50
2018-03-29T07:41:10.145Z,7.40
2018-03-29T07:43:38.424Z,7.40
2018-03-29T07:46:07.663Z,7.50
2018-03-29T07:48:39.774Z,7.50
2018-03-29T07:51:07.992Z,7.60
2018-03-29T07:53:36.098Z,7.70
2018-03-29T07:56:04.211Z,7.80
2018-03-29T07:58:32.491Z,7.90
2018-03-29T08:01:01.570Z,8.00
2018-03-29T08:03:29.605Z,8.00
2018-03-29T08:05:58.005Z,8.00
2018-03-29T08:08:26.105Z,8.40
2018-03-29T08:10:53.637Z,9.00
2018-03-29T08:13:22.209Z,9.50
2018-03-29T08:15:49.730Z,9.40
2018-03-29T08:18:17.699Z,9.40
2018-03-29T08:20:45.231Z,9.00
2018-03-29T08:23:12.756Z,8.70
2018-03-29T08:25:40.279Z,8.50
2018-03-29T08:28:07.811Z,8.30
2018-03-29T08:30:36.323Z,8.00
2018-03-29T08:33:08.087Z,7.90
2018-03-29T08:35:40.176Z,7.90
2018-03-29T08:38:07.684Z,7.90
2018-03-29T08:40:36.520Z,8.00
2018-03-29T08:43:04.544Z,8.00
2018-03-29T08:45:33.692Z,7.90
2018-03-29T08:48:01.252Z,7.90
2018-03-29T08:50:28.753Z,7.70
2018-03-29T08:52:57.236Z,7.60
2018-03-29T08:55:25.388Z,7.50
2018-03-29T08:57:52.927Z,7.50
2018-03-29T09:00:20.443Z,7.40
2018-03-29T09:02:53.642Z,7.40
2018-03-29T09:05:23.391Z,7.20
2018-03-29T09:07:52.219Z,7.20
2018-03-29T09:10:20.569Z,7.10
2018-03-29T09:12:48.153Z,7.10
2018-03-29T09:15:15.678Z,7.30
2018-03-29T09:17:43.315Z,7.50
2018-03-29T09:20:10.846Z,7.70
2018-03-29T09:22:43.018Z,7.80
2018-03-29T09:25:11.305Z,8.00
2018-03-29T09:27:39.603Z,8.50
2018-03-29T09:30:10.698Z,8.50
2018-03-29T09:32:38.230Z,9.30
2018-03-29T09:35:05.769Z,9.70
2018-03-29T09:37:33.306Z,10.50
2018-03-29T09:40:01.714Z,11.80
2018-03-29T09:42:29.288Z,11.80
2018-03-29T09:44:57.185Z,11.70
2018-03-29T09:47:25.710Z,11.10
2018-03-29T09:49:53.783Z,10.50
2018-03-29T09:52:21.321Z,9.90
2018-03-29T09:54:49.630Z,9.40
2018-03-29T09:57:17.144Z,9.40
2018-03-29T09:59:45.563Z,9.00
2018-03-29T10:02:19.773Z,9.00
2018-03-29T10:04:52.883Z,8.90
2018-03-29T10:07:24.806Z,8.90
2018-03-29T10:22:57.381Z,8.90
2018-03-29T10:25:25.692Z,7.70
2018-03-29T10:27:53.250Z,7.70
2018-03-29T10:30:21.267Z,7.60
2018-03-29T10:32:48.833Z,7.70
2018-03-29T10:35:17.163Z,7.80
2018-03-29T10:37:44.690Z,7.80
2018-03-29T10:40:12.989Z,8.00
2018-03-29T10:42:41.129Z,8.00
2018-03-29T10:45:09.422Z,8.00
2018-03-29T10:47:38.805Z,8.00
2018-03-29T10:50:11.402Z,7.80
2018-03-29T10:52:38.920Z,7.70
2018-03-29T10:55:06.851Z,7.50
2018-03-29T10:57:34.373Z,7.30
2018-03-29T11:00:03.359Z,7.30
2018-03-29T11:02:31.679Z,7.40
2018-03-29T11:04:59.958Z,7.30
2018-03-29T11:07:27.481Z,7.50
2018-03-29T11:09:55.752Z,7.60
2018-03-29T11:12:24.708Z,7.90
2018-03-29T11:14:52.231Z,7.90
2018-03-29T11:17:19.783Z,8.20
2018-03-29T11:19:47.363Z,8.40
2018-03-29T11:22:15.506Z,8.60
2018-03-29T11:24:43.842Z,8.90
2018-03-29T11:27:11.382Z,8.90
2018-03-29T11:29:38.967Z,8.90
2018-03-29T11:32:06.506Z,9.20
2018-03-29T11:34:34.753Z,9.40
2018-03-29T11:37:02.293Z,9.50
2018-03-29T11:39:30.585Z,9.50
2018-03-29T11:41:58.946Z,9.50
2018-03-29T11:44:27.378Z,9.40
2018-03-29T11:46:55.141Z,9.40
2018-03-29T11:49:23.336Z,9.50
2018-03-29T11:51:51.736Z,9.70
2018-03-29T11:54:19.281Z,9.80
2018-03-29T11:56:46.829Z,9.50
2018-03-29T11:59:15.097Z,9.40
2018-03-29T12:01:42.629Z,9.10
2018-03-29T12:04:10.199Z,9.00
2018-03-29T12:06:37.728Z,9.10
2018-03-29T12:09:06.454Z,9.50
2018-03-29T12:11:34.059Z,9.50
2018-03-29T12:14:01.685Z,10.10
2018-03-29T12:16:29.791Z,10.90
2018-03-29T12:19:01.378Z,11.70
2018-03-29T12:21:30.274Z,13.40
2018-03-29T12:23:57.794Z,13.30
2018-03-29T12:26:25.347Z,13.40
2018-03-29T12:28:52.877Z,12.90
2018-03-29T12:31:20.396Z,12.10
2018-03-29T12:33:48.747Z,10.90
2018-03-29T12:36:16.298Z,10.90
2018-03-29T12:38:47.703Z,10.50
2018-03-29T12:41:15.238Z,10.20
2018-03-29T12:43:43.562Z,10.00
2018-03-29T12:46:11.991Z,9.90
2018-03-29T12:48:39.518Z,10.10
2018-03-29T12:51:07.081Z,10.10
2018-03-29T12:53:35.139Z,10.20
2018-03-29T12:56:02.677Z,10.20
2018-03-29T12:58:30.214Z,10.30
2018-03-29T13:00:59.855Z,10.70
2018-03-29T13:03:27.824Z,10.60
2018-03-29T13:05:55.409Z,10.80
2018-03-29T13:08:22.914Z,10.80
2018-03-29T13:10:51.702Z,11.50
2018-03-29T13:13:20.004Z,11.90
2018-03-29T13:15:47.565Z,11.90
2018-03-29T13:18:15.129Z,12.10
2018-03-29T13:20:43.355Z,12.00
2018-03-29T13:23:10.902Z,11.70
2018-03-29T13:25:38.446Z,11.40
2018-03-29T13:28:05.985Z,11.00
2018-03-29T13:30:33.520Z,10.60
2018-03-29T13:33:09.886Z,10.20
2018-03-29T13:35:38.191Z,9.90
2018-03-29T13:38:05.714Z,9.90
2018-03-29T13:40:34.013Z,9.50
2018-03-29T13:43:05.484Z,9.50
2018-03-29T13:45:33.040Z,9.50
2018-03-29T13:48:00.577Z,9.60
2018-03-29T13:50:28.116Z,10.60
2018-03-29T13:52:56.442Z,11.60
2018-03-29T13:55:23.972Z,11.60
2018-03-29T13:57:55.943Z,11.60
2018-03-29T14:00:23.466Z,11.50
2018-03-29T14:02:51.856Z,11.50
2018-03-29T14:05:21.136Z,11.90
2018-03-29T14:07:48.701Z,11.90
2018-03-29T14:10:17.098Z,12.30
2018-03-29T14:12:46.214Z,12.40
2018-03-29T14:15:13.738Z,12.40
2018-03-29T14:17:41.264Z,12.20
2018-03-29T14:20:08.804Z,11.70
2018-03-29T14:22:37.299Z,11.40
2018-03-29T14:25:05.158Z,11.10
2018-03-29T14:27:36.991Z,10.70
2018-03-29T14:30:06.026Z,10.20
2018-03-29T14:32:33.563Z,10.20
2018-03-29T14:35:01.092Z,10.00
2018-03-29T14:37:33.538Z,9.70
2018-03-29T14:40:01.531Z,9.70
2018-03-29T14:42:29.852Z,9.70
2018-03-29T14:44:57.396Z,9.70
2018-03-29T14:47:24.925Z,9.80
2018-03-29T14:49:52.476Z,9.90
2018-03-29T14:52:20.013Z,10.10
2018-03-29T14:54:47.564Z,11.00
2018-03-29T14:57:15.077Z,11.30
2018-03-29T14:59:43.395Z,11.30
2018-03-29T15:02:10.935Z,11.30
2018-03-29T15:04:38.476Z,11.10
2018-03-29T15:07:06.753Z,10.40
2018-03-29T15:09:35.117Z,10.00
2018-03-29T15:12:02.662Z,10.00
2018-03-29T15:14:30.285Z,9.70
2018-03-29T15:16:57.842Z,9.70
2018-03-29T15:19:25.645Z,10.00
2018-03-29T15:21:53.170Z,10.50
2018-03-29T15:24:20.704Z,12.50
2018-03-29T15:26:49.016Z,15.50
2018-03-29T15:29:16.530Z,15.50
2018-03-29T15:31:44.814Z,16.00
2018-03-29T15:34:13.092Z,16.10
2018-03-29T15:36:41.603Z,15.80
2018-03-29T15:39:09.194Z,15.70
2018-03-29T15:41:36.713Z,14.60
2018-03-29T15:44:04.337Z,13.90
2018-03-29T15:46:31.924Z,13.50
2018-03-29T15:49:00.196Z,12.20
2018-03-29T15:51:28.495Z,11.70
2018-03-29T15:53:56.028Z,11.60
2018-03-29T15:56:24.336Z,11.20
2018-03-29T15:58:51.873Z,11.20
2018-03-29T16:01:20.201Z,10.50
2018-03-29T16:03:47.769Z,10.50
2018-03-29T16:06:15.305Z,10.00
2018-03-29T16:08:42.859Z,9.60
2018-03-29T16:11:11.040Z,9.10
2018-03-29T16:13:38.545Z,8.80
2018-03-29T16:16:06.888Z,8.60
2018-03-29T16:18:34.713Z,8.60
2018-03-29T16:21:02.554Z,8.70
2018-03-29T16:23:30.079Z,8.40
2018-03-29T16:25:57.598Z,8.30
2018-03-29T16:28:25.141Z,8.40
2018-03-29T16:30:53.421Z,8.60
2018-03-29T16:33:21.721Z,8.60
2018-03-29T16:35:49.302Z,8.60
2018-03-29T16:38:16.830Z,8.70
2018-03-29T16:40:45.149Z,8.70
2018-03-29T16:43:12.671Z,8.70
2018-03-29T16:45:40.198Z,8.70
2018-03-29T16:48:07.708Z,8.80
2018-03-29T16:50:35.232Z,9.00
2018-03-29T16:53:03.885Z,8.90
2018-03-29T16:55:31.390Z,8.90
2018-03-29T16:57:58.916Z,8.80
2018-03-29T17:00:26.436Z,8.90
2018-03-29T17:02:53.997Z,8.80
2018-03-29T17:05:21.518Z,8.70
2018-03-29T17:07:49.836Z,8.50
2018-03-29T17:10:17.349Z,8.50
2018-03-29T17:12:45.682Z,8.20
2018-03-29T17:15:13.785Z,8.20
2018-03-29T17:17:41.312Z,8.20
2018-03-29T17:20:08.832Z,8.10
2018-03-29T17:22:40.980Z,8.00
2018-03-29T17:25:09.314Z,7.90
2018-03-29T17:27:36.864Z,7.90
2018-03-29T17:30:04.401Z,7.90
2018-03-29T17:32:32.028Z,7.90
2018-03-29T17:34:59.604Z,8.00
2018-03-29T17:37:27.888Z,7.80
2018-03-29T17:39:56.210Z,7.80
2018-03-29T17:42:23.736Z,7.80
2018-03-29T17:44:51.273Z,7.80
2018-03-29T17:47:19.594Z,7.50
2018-03-29T17:49:47.359Z,7.50
2018-03-29T17:52:15.644Z,7.50
2018-03-29T17:54:43.198Z,7.50
2018-03-29T17:57:10.854Z,7.50
2018-03-29T17:59:38.538Z,7.40
2018-03-29T18:02:06.089Z,7.40
2018-03-29T18:04:33.660Z,7.40
2018-03-29T18:16:51.304Z,7.30
2018-03-29T18:19:19.600Z,6.30
2018-03-29T18:34:52.173Z,6.30
2018-03-29T18:37:19.735Z,5.80
2018-03-29T18:39:47.258Z,6.00
2018-03-29T18:42:15.586Z,6.20
2018-03-29T18:44:43.104Z,6.20
2018-03-29T18:47:11.742Z,6.30
2018-03-29T18:49:39.297Z,6.30
2018-03-29T18:52:06.831Z,6.30
2018-03-29T19:07:39.407Z,6.30
2018-03-29T19:10:06.930Z,5.80
2018-03-29T19:12:36.259Z,5.90
2018-03-29T19:15:03.782Z,5.90
2018-03-29T19:17:32.674Z,6.10
2018-03-29T19:20:00.188Z,6.10
2018-03-29T19:22:28.255Z,6.20
2018-03-29T19:24:55.815Z,6.20
2018-03-29T19:27:23.900Z,6.20
2018-03-29T19:29:51.430Z,6.10
2018-03-29T19:32:18.966Z,6.10
2018-03-29T19:34:47.248Z,6.10
2018-03-29T19:37:15.556Z,6.10
2018-03-29T19:39:43.805Z,6.10
2018-03-29T19:42:12.127Z,6.20
2018-03-29T19:44:39.667Z,6.10
2018-03-29T19:47:07.229Z,6.10
2018-03-29T19:49:34.777Z,6.00
2018-03-29T19:52:02.315Z,6.00
2018-03-29T19:54:30.624Z,5.90
2018-03-29T19:56:58.200Z,5.90
2018-03-29T19:59:25.754Z,5.90
2018-03-29T20:01:53.276Z,5.90
2018-03-29T20:04:21.898Z,5.70
2018-03-29T20:06:49.424Z,5.70
2018-03-29T20:09:17.768Z,5.70
2018-03-29T20:11:45.346Z,5.70
2018-03-29T20:14:12.899Z,5.80
2018-03-29T20:16:40.447Z,5.80
2018-03-29T20:19:07.965Z,5.80
2018-03-29T20:21:35.509Z,5.80
2018-03-29T20:24:03.050Z,5.90
2018-03-29T20:26:31.962Z,6.00
2018-03-29T20:29:00.013Z,6.00
2018-03-29T20:31:28.321Z,5.80
2018-03-29T20:33:55.875Z,5.80
2018-03-29T20:36:23.406Z,5.90
2018-03-29T20:38:51.712Z,5.90
2018-03-29T20:41:19.290Z,5.90
2018-03-29T20:43:46.855Z,5.90
2018-03-29T20:46:14.388Z,5.80
2018-03-29T20:48:41.912Z,5.70
2018-03-29T20:51:09.490Z,5.70
2018-03-29T20:53:37.796Z,5.60
2018-03-29T20:56:05.327Z,5.60
2018-03-29T20:58:33.624Z,5.30
2018-03-29T21:01:01.182Z,5.30
2018-03-29T21:03:28.706Z,5.40
2018-03-29T21:05:56.952Z,5.30
2018-03-29T21:08:24.506Z,5.30
2018-03-29T21:10:52.096Z,5.30
2018-03-29T21:13:19.656Z,5.30
2018-03-29T21:15:47.498Z,5.30
2018-03-29T21:18:15.059Z,5.30
2018-03-29T21:20:42.576Z,5.20
2018-03-29T21:23:11.366Z,5.20
2018-03-29T21:25:39.665Z,5.10
2018-03-29T21:28:07.193Z,5.10
2018-03-29T21:30:35.529Z,5.10
2018-03-29T21:33:04.285Z,5.20
2018-03-29T21:35:31.855Z,5.20
2018-03-29T21:37:59.970Z,5.30
2018-03-29T21:40:28.089Z,5.20
2018-03-29T21:42:55.614Z,5.10
2018-03-29T21:45:23.149Z,5.10
2018-03-29T21:47:52.198Z,5.00
2018-03-29T21:50:23.569Z,5.00
2018-03-29T21:52:55.233Z,5.10
2018-03-29T21:55:22.761Z,5.00
2018-03-29T21:57:50.982Z,5.00
2018-03-29T22:00:19.315Z,4.90
2018-03-29T22:02:46.843Z,4.90
2018-03-29T22:05:14.707Z,4.90
2018-03-29T22:07:42.402Z,4.90
2018-03-29T22:10:11.523Z,4.80
2018-03-29T22:12:39.058Z,4.80
2018-03-29T22:15:06.614Z,4.70
2018-03-29T22:17:34.893Z,4.70
2018-03-29T22:20:03.198Z,4.70
2018-03-29T22:22:30.762Z,4.70
2018-03-29T22:24:58.329Z,4.70
2018-03-29T22:27:25.881Z,4.80
2018-03-29T22:29:53.486Z,4.70
2018-03-29T22:32:21.267Z,4.70
2018-03-29T22:34:49.436Z,4.70
2018-03-29T22:37:17.763Z,4.70
2018-03-29T22:39:45.294Z,4.70
2018-03-29T22:42:13.274Z,4.70
2018-03-29T22:44:40.810Z,4.60
2018-03-29T22:47:09.117Z,4.60
2018-03-29T22:49:36.622Z,4.50
2018-03-29T22:52:04.163Z,4.60
2018-03-29T22:54:35.779Z,4.50
2018-03-29T22:57:03.301Z,4.50
2018-03-29T22:59:30.840Z,4.40
2018-03-29T23:01:58.421Z,4.50
2018-03-29T23:04:25.948Z,4.40
2018-03-29T23:06:53.685Z,4.50
2018-03-29T23:09:21.206Z,4.40
2018-03-29T23:11:49.085Z,4.40
2018-03-29T23:14:17.373Z,4.60
2018-03-29T23:16:45.828Z,4.60
2018-03-29T23:19:13.368Z,4.50
2018-03-29T23:21:42.072Z,4.50
2018-03-29T23:24:09.612Z,4.60
2018-03-29T23:26:37.792Z,4.50
2018-03-29T23:29:05.342Z,4.40
2018-03-29T23:31:32.869Z,4.30
2018-03-29T23:34:01.063Z,4.20
2018-03-29T23:36:28.590Z,4.30
2018-03-29T23:38:57.818Z,4.40
2018-03-29T23:41:25.940Z,4.30
2018-03-29T23:43:53.963Z,4.30
2018-03-29T23:46:21.496Z,4.30
2018-03-29T23:48:49.047Z,4.30
2018-03-29T23:51:17.353Z,4.20
2018-03-29T23:53:45.302Z,4.20
2018-03-29T23:56:12.862Z,4.10
2018-03-29T23:58:40.421Z,4.30
